PWSweather.com
Personal Weather Stations
Station Observations

ChardChardGB

Lat: 50.877408, Lon: -2.94964741

Elevation: 341

Station Type: WS3083

http://www.merriott-astro.co.uk/weather/index.htm

High Low Average
Temperature 53.4°F11.9°C 39.4°F4.1°C 44.6°F7.0°C
Dew Point 45.3°F7.4°C 28.0°F-2.2°C 35.8°F2.1°C
Winds 19.0 mph 30.6 kmh Calm Calm 7.0 mph S11.3 kmh S
Wind Gusts 19.7 mph31.7 kmh -- 7.0 mph11.3 kmh
Humidity 86% 41% 72%
Pressure 30.20 in1022.7 mb 29.60 in1002.4 mb -
Precipitation 0.22 in5.6 mm - -
Hour Temp Dew Point Humidity Winds Wind Gusts Pressure Precip Precip Rate Daily Precip Total
06:41 PM 44.4°F6.9°C 35.6°F2.0°C 71% 3.1 mph SW5.0 kmh SW 3.1 mph5.0 kmh 29.96 in1014.6 mb 0.01 in0.3 mm 0.01 in0.3 mm 0.01 in0.3 mm
06:42 PM 49.6°F9.8°C 30.7°F-0.7°C 48% 6.0 mph S9.7 kmh S 6.0 mph9.7 kmh 30.17 in1021.7 mb 0.00 in0.0 mm 0.00 in0.0 mm 0.01 in0.3 mm
06:43 PM 45.0°F7.2°C 41.0°F5.0°C 86% 7.6 mph SE12.2 kmh SE 7.6 mph12.2 kmh 29.64 in1003.7 mb 0.00 in0.0 mm 0.00 in0.0 mm 0.01 in0.3 mm
06:50 PM 45.7°F7.6°C 35.4°F1.9°C 67% 8.1 mph W13.0 kmh W 9.8 mph15.8 kmh 29.78 in1008.5 mb 0.06 in1.5 mm 0.51 in13.0 mm 0.06 in1.5 mm
07:00 PM 45.5°F7.5°C 35.2°F1.8°C 67% 9.1 mph WNW14.6 kmh WNW 19.7 mph31.7 kmh 29.79 in1008.8 mb 0.06 in1.5 mm 0.00 in0.0 mm 0.06 in1.5 mm
07:10 PM 45.3°F7.4°C 36.1°F2.3°C 70% 11.8 mph NW19.0 kmh NW 19.7 mph31.7 kmh 29.80 in1009.1 mb 0.06 in1.5 mm 0.00 in0.0 mm 0.06 in1.5 mm
07:20 PM 45.3°F7.4°C 36.1°F2.3°C 70% 7.3 mph NW11.7 kmh NW 13.0 mph20.9 kmh 29.81 in1009.5 mb 0.06 in1.5 mm 0.00 in0.0 mm 0.06 in1.5 mm
07:30 PM 45.0°F7.2°C 35.8°F2.1°C 70% 7.1 mph NW11.4 kmh NW 13.0 mph20.9 kmh 29.81 in1009.5 mb 0.06 in1.5 mm 0.00 in0.0 mm 0.06 in1.5 mm
07:40 PM 45.0°F7.2°C 35.8°F2.1°C 70% 7.6 mph WNW12.2 kmh WNW 10.7 mph17.2 kmh 29.82 in1009.8 mb 0.06 in1.5 mm 0.00 in0.0 mm 0.06 in1.5 mm
07:50 PM 44.8°F7.1°C 35.6°F2.0°C 70% 5.1 mph NW8.2 kmh NW 8.3 mph13.4 kmh 29.83 in1010.2 mb 0.00 in0.0 mm 0.00 in0.0 mm 0.06 in1.5 mm
08:00 PM 44.8°F7.1°C 35.6°F2.0°C 70% 6.1 mph W9.8 kmh W 8.3 mph13.4 kmh 29.84 in1010.5 mb 0.00 in0.0 mm 0.00 in0.0 mm 0.06 in1.5 mm
08:10 PM 44.8°F7.1°C 36.0°F2.2°C 71% 6.1 mph NW9.8 kmh NW 9.8 mph15.8 kmh 29.84 in1010.5 mb 0.00 in0.0 mm 0.00 in0.0 mm 0.06 in1.5 mm
08:20 PM 44.8°F7.1°C 36.0°F2.2°C 71% 6.1 mph NW9.8 kmh NW 9.2 mph14.8 kmh 29.84 in1010.5 mb 0.00 in0.0 mm 0.00 in0.0 mm 0.06 in1.5 mm
08:30 PM 44.6°F7.0°C 36.1°F2.3°C 72% 6.0 mph NW9.7 kmh NW 8.3 mph13.4 kmh 29.85 in1010.8 mb 0.00 in0.0 mm 0.00 in0.0 mm 0.06 in1.5 mm
08:40 PM 44.2°F6.8°C 36.1°F2.3°C 73% 7.5 mph NW12.1 kmh NW 9.8 mph15.8 kmh 29.86 in1011.2 mb 0.00 in0.0 mm 0.00 in0.0 mm 0.06 in1.5 mm
08:50 PM 44.1°F6.7°C 36.3°F2.4°C 74% 8.6 mph WNW13.8 kmh WNW 13.0 mph20.9 kmh 29.86 in1011.2 mb 0.00 in0.0 mm 0.00 in0.0 mm 0.06 in1.5 mm
09:00 PM 43.9°F6.6°C 35.8°F2.1°C 73% 9.5 mph WNW15.3 kmh WNW 15.2 mph24.5 kmh 29.87 in1011.5 mb 0.00 in0.0 mm 0.00 in0.0 mm 0.06 in1.5 mm
09:10 PM 43.9°F6.6°C 35.4°F1.9°C 72% 8.3 mph NW13.4 kmh NW 11.4 mph18.3 kmh 29.88 in1011.9 mb 0.00 in0.0 mm 0.00 in0.0 mm 0.06 in1.5 mm
09:20 PM 43.7°F6.5°C 34.9°F1.6°C 71% 8.4 mph NW13.5 kmh NW 9.8 mph15.8 kmh 29.89 in1012.2 mb 0.00 in0.0 mm 0.00 in0.0 mm 0.06 in1.5 mm
09:30 PM 43.7°F6.5°C 34.6°F1.4°C 70% 8.1 mph NW13.0 kmh NW 11.4 mph18.3 kmh 29.90 in1012.5 mb 0.00 in0.0 mm 0.00 in0.0 mm 0.06 in1.5 mm
09:40 PM 43.5°F6.4°C 33.7°F0.9°C 68% 11.5 mph NW18.5 kmh NW 15.2 mph24.5 kmh 29.91 in1012.9 mb 0.00 in0.0 mm 0.00 in0.0 mm 0.06 in1.5 mm
09:50 PM 43.2°F6.2°C 33.3°F0.7°C 68% 10.1 mph WNW16.3 kmh WNW 13.0 mph20.9 kmh 29.91 in1012.9 mb 0.00 in0.0 mm 0.00 in0.0 mm 0.06 in1.5 mm
10:00 PM 42.8°F6.0°C 32.2°F0.1°C 66% 10.4 mph NW16.7 kmh NW 13.6 mph21.9 kmh 29.92 in1013.2 mb 0.00 in0.0 mm 0.00 in0.0 mm 0.06 in1.5 mm
10:10 PM 42.4°F5.8°C 31.9°F-0.1°C 66% 8.2 mph NW13.2 kmh NW 10.7 mph17.2 kmh 29.92 in1013.2 mb 0.00 in0.0 mm 0.00 in0.0 mm 0.06 in1.5 mm
10:20 PM 42.3°F5.7°C 31.7°F-0.2°C 66% 9.5 mph NW15.3 kmh NW 12.1 mph19.5 kmh 29.92 in1013.2 mb 0.00 in0.0 mm 0.00 in0.0 mm 0.06 in1.5 mm
10:30 PM 42.1°F5.6°C 31.6°F-0.2°C 66% 10.1 mph WNW16.3 kmh WNW 11.4 mph18.3 kmh 29.93 in1013.5 mb 0.00 in0.0 mm 0.00 in0.0 mm 0.06 in1.5 mm
10:40 PM 41.9°F5.5°C 31.4°F-0.3°C 66% 9.6 mph NW15.4 kmh NW 13.0 mph20.9 kmh 29.94 in1013.9 mb 0.00 in0.0 mm 0.00 in0.0 mm 0.06 in1.5 mm
10:50 PM 41.5°F5.3°C 31.4°F-0.3°C 67% 6.8 mph NW10.9 kmh NW 9.2 mph14.8 kmh 29.96 in1014.6 mb 0.00 in0.0 mm 0.00 in0.0 mm 0.06 in1.5 mm
11:00 PM 41.7°F5.4°C 31.6°F-0.2°C 67% 7.3 mph WNW11.7 kmh WNW 8.3 mph13.4 kmh 29.96 in1014.6 mb 0.00 in0.0 mm 0.00 in0.0 mm 0.06 in1.5 mm
11:10 PM 41.9°F5.5°C 31.4°F-0.3°C 66% 8.7 mph NW14.0 kmh NW 12.1 mph19.5 kmh 29.96 in1014.6 mb 0.00 in0.0 mm 0.00 in0.0 mm 0.06 in1.5 mm
11:20 PM 42.3°F5.7°C 31.7°F-0.2°C 66% 10.3 mph WNW16.6 kmh WNW 17.4 mph28.0 kmh 29.96 in1014.6 mb 0.00 in0.0 mm 0.00 in0.0 mm 0.06 in1.5 mm
11:30 PM 42.4°F5.8°C 31.9°F-0.1°C 66% 11.6 mph WNW18.7 kmh WNW 14.5 mph23.3 kmh 29.98 in1015.2 mb 0.00 in0.0 mm 0.00 in0.0 mm 0.06 in1.5 mm
11:40 PM 42.4°F5.8°C 32.3°F0.2°C 67% 7.1 mph NW11.4 kmh NW 9.8 mph15.8 kmh 29.98 in1015.2 mb 0.00 in0.0 mm 0.00 in0.0 mm 0.06 in1.5 mm
11:50 PM 42.3°F5.7°C 31.7°F-0.2°C 66% 8.5 mph NW13.7 kmh NW 15.2 mph24.5 kmh 29.99 in1015.6 mb 0.00 in0.0 mm 0.00 in0.0 mm 0.06 in1.5 mm